Time;durP1;ratioP1;P1;durP2;ratioP2;P2;SDS_P1;SDS_P2;PMS_P1;PMS_P2;Temp;Humidity;BMP_temperature;BMP_pressure;BME280_temperature;BME280_humidity;BME280_pressure;Samples;Min_cycle;Max_cycle;Signal;HPM_P1;HPM_P2
2023/03/28 00:01:48;;;;;;;21.10;8.85;;;;;;;;;;6262837;28;20057;-58
2023/03/28 00:04:48;;;;;;;22.05;8.23;;;;;;;;;;6259262;28;20095;-62
2023/03/28 00:07:50;;;;;;;22.50;8.57;;;;;;;;;;6259313;28;20096;-61
2023/03/28 00:10:51;;;;;;;22.10;9.07;;;;;;;;;;6259043;28;20560;-60
2023/03/28 00:13:59;;;;;;;24.40;9.02;;;;;;;;;;6258353;28;20090;-61
2023/03/28 00:17:00;;;;;;;24.98;10.18;;;;;;;;;;6258280;28;20075;-60
2023/03/28 00:20:03;;;;;;;20.50;9.27;;;;;;;;;;6259769;28;20045;-61
2023/03/28 00:23:06;;;;;;;21.15;9.52;;;;;;;;;;6260712;28;20096;-60
2023/03/28 00:26:07;;;;;;;26.42;10.18;;;;;;;;;;6256104;28;20045;-58
2023/03/28 00:29:14;;;;;;;27.45;10.05;;;;;;;;;;6256107;28;20056;-60
2023/03/28 00:32:15;;;;;;;25.60;9.77;;;;;;;;;;6256693;28;20044;-60
2023/03/28 00:35:15;;;;;;;25.77;9.63;;;;;;;;;;6261767;28;20095;-60
2023/03/28 00:38:16;;;;;;;23.85;9.50;;;;;;;;;;6256802;28;20380;-61
2023/03/28 00:41:17;;;;;;;21.73;9.65;;;;;;;;;;6259324;28;20123;-59
2023/03/28 00:44:44;;;;;;;25.17;10.00;;;;;;;;;;6257688;28;20041;-61
2023/03/28 00:47:50;;;;;;;26.13;10.23;;;;;;;;;;6259916;28;20057;-59
2023/03/28 00:50:51;;;;;;;21.52;9.13;;;;;;;;;;6259296;28;20045;-59
2023/03/28 00:53:56;;;;;;;24.92;10.10;;;;;;;;;;6259951;28;20699;-59
2023/03/28 00:57:00;;;;;;;23.13;9.45;;;;;;;;;;6259518;28;20055;-58
2023/03/28 01:00:00;;;;;;;27.67;10.88;;;;;;;;;;6258416;28;20052;-61
2023/03/28 01:03:05;;;;;;;22.77;9.50;;;;;;;;;;6261363;28;20099;-60
2023/03/28 01:06:07;;;;;;;23.85;9.75;;;;;;;;;;6260288;28;20072;-59
2023/03/28 01:09:08;;;;;;;28.40;10.38;;;;;;;;;;6266203;28;20056;-60
2023/03/28 01:12:10;;;;;;;22.98;10.18;;;;;;;;;;6257886;28;20472;-59
2023/03/28 01:15:11;;;;;;;24.27;10.82;;;;;;;;;;6257878;28;20043;-60
2023/03/28 01:18:12;;;;;;;27.58;11.05;;;;;;;;;;6256465;28;20052;-61
2023/03/28 01:21:59;;;;;;;25.85;10.57;;;;;;;;;;6257811;28;20411;-60
2023/03/28 01:25:19;;;;;;;22.10;10.27;;;;;;;;;;6251001;28;20072;-60
2023/03/28 01:29:05;;;;;;;25.30;10.25;;;;;;;;;;6246298;28;20083;-60
2023/03/28 01:32:26;;;;;;;29.88;10.38;;;;;;;;;;6248318;28;20144;-60
2023/03/28 01:36:00;;;;;;;20.83;9.80;;;;;;;;;;6257022;28;20102;-60
2023/03/28 01:39:34;;;;;;;25.67;11.10;;;;;;;;;;6245030;28;20087;-60
2023/03/28 01:43:01;;;;;;;23.70;10.38;;;;;;;;;;6257547;28;20102;-61
2023/03/28 01:46:10;;;;;;;24.88;11.48;;;;;;;;;;6264438;28;20104;-61
2023/03/28 01:49:26;;;;;;;27.58;10.38;;;;;;;;;;6260729;28;20130;-60
2023/03/28 01:52:57;;;;;;;24.98;10.30;;;;;;;;;;6258649;28;20053;-60
2023/03/28 01:56:08;;;;;;;23.33;10.65;;;;;;;;;;6252614;28;20857;-60
2023/03/28 01:59:31;;;;;;;25.05;11.75;;;;;;;;;;6256188;28;20045;-58
2023/03/28 02:02:37;;;;;;;29.50;10.80;;;;;;;;;;6258382;28;20060;-61
2023/03/28 02:05:40;;;;;;;28.83;11.63;;;;;;;;;;6255203;28;20056;-60
2023/03/28 02:08:43;;;;;;;27.15;11.18;;;;;;;;;;6258878;28;20040;-60
2023/03/28 02:11:48;;;;;;;28.75;11.45;;;;;;;;;;6264815;28;20044;-57
2023/03/28 02:14:53;;;;;;;23.63;10.82;;;;;;;;;;6266198;28;20140;-61
2023/03/28 02:18:01;;;;;;;29.55;11.77;;;;;;;;;;6261273;28;20056;-61
2023/03/28 02:21:15;;;;;;;29.88;12.15;;;;;;;;;;6266324;28;20060;-60
2023/03/28 02:24:16;;;;;;;33.53;11.70;;;;;;;;;;6265924;28;20045;-60
2023/03/28 02:27:19;;;;;;;30.30;11.32;;;;;;;;;;6253896;28;20049;-59
2023/03/28 02:30:20;;;;;;;27.17;11.48;;;;;;;;;;6262571;28;20045;-61
2023/03/28 02:33:45;;;;;;;25.70;11.88;;;;;;;;;;6264177;28;20063;-61
2023/03/28 02:37:24;;;;;;;24.95;10.98;;;;;;;;;;6258520;28;20407;-61
2023/03/28 02:40:47;;;;;;;26.45;11.48;;;;;;;;;;6261607;28;20484;-60
2023/03/28 02:43:51;;;;;;;24.88;10.88;;;;;;;;;;6262859;28;20476;-61
2023/03/28 02:47:17;;;;;;;25.92;11.48;;;;;;;;;;6264153;28;20040;-61
2023/03/28 02:50:52;;;;;;;23.50;10.63;;;;;;;;;;6260784;28;20139;-61
2023/03/28 02:54:11;;;;;;;21.48;9.77;;;;;;;;;;6267123;28;20048;-60
2023/03/28 02:57:17;;;;;;;29.30;9.50;;;;;;;;;;6259212;28;20558;-61
2023/03/28 03:00:19;;;;;;;25.02;9.60;;;;;;;;;;6263396;28;20082;-61
2023/03/28 03:03:20;;;;;;;17.50;9.32;;;;;;;;;;6264595;28;20488;-60
2023/03/28 03:06:21;;;;;;;25.55;9.68;;;;;;;;;;6262052;28;20049;-61
2023/03/28 03:09:22;;;;;;;21.00;9.90;;;;;;;;;;6259670;28;20121;-61
2023/03/28 03:12:23;;;;;;;25.75;9.52;;;;;;;;;;6262181;28;20048;-60
2023/03/28 03:15:24;;;;;;;24.33;9.70;;;;;;;;;;6260236;28;22278;-61
2023/03/28 03:18:26;;;;;;;22.65;8.82;;;;;;;;;;6256172;28;20056;-61
2023/03/28 03:21:26;;;;;;;22.20;8.73;;;;;;;;;;6264634;28;20040;-60
2023/03/28 03:24:27;;;;;;;19.40;8.30;;;;;;;;;;6262608;28;20152;-60
2023/03/28 03:27:28;;;;;;;19.73;7.40;;;;;;;;;;6254470;28;20045;-61
2023/03/28 03:30:29;;;;;;;19.92;8.32;;;;;;;;;;6259289;28;20103;-60
2023/03/28 03:33:29;;;;;;;17.10;7.82;;;;;;;;;;6258853;28;20051;-61
2023/03/28 03:36:30;;;;;;;15.88;7.45;;;;;;;;;;6260710;28;20483;-61
2023/03/28 03:39:31;;;;;;;18.75;7.65;;;;;;;;;;6258593;28;20045;-60
2023/03/28 03:42:31;;;;;;;16.95;8.05;;;;;;;;;;6264718;28;20052;-59
2023/03/28 03:45:32;;;;;;;17.48;7.63;;;;;;;;;;6262355;28;20488;-61
2023/03/28 03:48:33;;;;;;;16.10;7.13;;;;;;;;;;6262615;28;20786;-61
2023/03/28 03:51:33;;;;;;;19.45;7.55;;;;;;;;;;6264160;28;20040;-59
2023/03/28 03:54:34;;;;;;;19.85;7.78;;;;;;;;;;6258327;28;20076;-61
2023/03/28 03:57:34;;;;;;;19.17;7.43;;;;;;;;;;6257131;28;20041;-61
2023/03/28 04:00:36;;;;;;;17.95;8.25;;;;;;;;;;6257934;28;20053;-59
2023/03/28 04:03:37;;;;;;;16.75;7.70;;;;;;;;;;6258522;28;20045;-61
2023/03/28 04:06:38;;;;;;;21.65;7.68;;;;;;;;;;6264360;28;20756;-62
2023/03/28 04:09:38;;;;;;;15.88;6.97;;;;;;;;;;6263009;28;20056;-51
2023/03/28 04:12:39;;;;;;;18.52;7.60;;;;;;;;;;6258709;28;20182;-60
2023/03/28 04:15:39;;;;;;;15.18;6.80;;;;;;;;;;6257867;28;20048;-61
2023/03/28 04:18:44;;;;;;;14.55;7.45;;;;;;;;;;6256133;28;20522;-60
2023/03/28 04:21:47;;;;;;;16.50;7.75;;;;;;;;;;6265549;28;20079;-61
2023/03/28 04:24:48;;;;;;;17.30;7.25;;;;;;;;;;6262559;28;20055;-61
2023/03/28 04:27:53;;;;;;;20.10;7.93;;;;;;;;;;6262517;28;20090;-61
2023/03/28 04:30:57;;;;;;;17.00;7.45;;;;;;;;;;6267573;28;20045;-58
2023/03/28 04:33:59;;;;;;;15.05;7.25;;;;;;;;;;6261193;28;20048;-62
2023/03/28 04:37:01;;;;;;;20.65;8.63;;;;;;;;;;6260944;28;20082;-59
2023/03/28 04:40:03;;;;;;;18.57;7.90;;;;;;;;;;6258774;28;20060;-60
2023/03/28 04:43:03;;;;;;;20.20;8.20;;;;;;;;;;6258174;28;20313;-61
2023/03/28 04:46:04;;;;;;;15.07;7.70;;;;;;;;;;6263581;28;20045;-60
2023/03/28 04:49:05;;;;;;;18.38;7.15;;;;;;;;;;6265424;28;20411;-62
2023/03/28 04:52:06;;;;;;;13.50;6.78;;;;;;;;;;6265224;28;20045;-60
2023/03/28 04:55:09;;;;;;;18.23;8.30;;;;;;;;;;6258719;28;20063;-61
2023/03/28 04:58:09;;;;;;;18.08;7.35;;;;;;;;;;6263375;28;20405;-62
2023/03/28 05:01:10;;;;;;;17.38;7.40;;;;;;;;;;6263292;28;20048;-56
2023/03/28 05:04:10;;;;;;;16.75;7.38;;;;;;;;;;6261002;28;20045;-61
2023/03/28 05:07:11;;;;;;;15.20;7.18;;;;;;;;;;6262154;28;20040;-61
2023/03/28 05:10:12;;;;;;;12.15;6.22;;;;;;;;;;6256029;28;20053;-61
2023/03/28 05:13:13;;;;;;;19.77;7.50;;;;;;;;;;6257960;28;20048;-62
2023/03/28 05:16:13;;;;;;;14.40;6.40;;;;;;;;;;6259070;28;20468;-61
2023/03/28 05:19:14;;;;;;;16.02;6.45;;;;;;;;;;6261040;28;20503;-61
2023/03/28 05:22:15;;;;;;;15.73;5.95;;;;;;;;;;6260850;28;20064;-60
2023/03/28 05:25:16;;;;;;;15.93;6.68;;;;;;;;;;6262473;28;20076;-61
2023/03/28 05:28:16;;;;;;;17.98;6.53;;;;;;;;;;6259088;28;20049;-62
2023/03/28 05:31:17;;;;;;;19.10;6.25;;;;;;;;;;6257674;28;20072;-62
2023/03/28 05:34:18;;;;;;;14.25;6.53;;;;;;;;;;6258183;28;20045;-61
2023/03/28 05:37:18;;;;;;;12.90;6.15;;;;;;;;;;6256536;28;20484;-61
2023/03/28 05:40:19;;;;;;;13.10;5.85;;;;;;;;;;6258060;28;20056;-61
2023/03/28 05:43:20;;;;;;;13.60;5.90;;;;;;;;;;6257810;28;20052;-61
2023/03/28 05:46:20;;;;;;;13.18;6.15;;;;;;;;;;6263865;28;20048;-62
2023/03/28 05:49:21;;;;;;;15.90;6.57;;;;;;;;;;6261865;28;20362;-62
2023/03/28 05:52:21;;;;;;;16.05;7.10;;;;;;;;;;6261427;28;20733;-60
2023/03/28 05:55:22;;;;;;;15.98;7.20;;;;;;;;;;6264051;28;20072;-62
2023/03/28 05:58:22;;;;;;;12.60;6.63;;;;;;;;;;6265558;28;20048;-61
2023/03/28 06:01:27;;;;;;;16.25;7.07;;;;;;;;;;6266840;28;20041;-60
2023/03/28 06:04:28;;;;;;;14.43;7.03;;;;;;;;;;6264360;28;20044;-60
2023/03/28 06:07:29;;;;;;;14.40;7.07;;;;;;;;;;6265530;28;20059;-59
2023/03/28 06:10:29;;;;;;;14.90;6.68;;;;;;;;;;6261982;28;20059;-61
2023/03/28 06:13:30;;;;;;;16.67;7.47;;;;;;;;;;6262442;28;20059;-60
2023/03/28 06:16:30;;;;;;;14.23;7.88;;;;;;;;;;6260002;28;20044;-59
2023/03/28 06:19:31;;;;;;;16.40;7.47;;;;;;;;;;6265438;28;20391;-62
2023/03/28 06:22:32;;;;;;;15.73;7.88;;;;;;;;;;6263097;28;20056;-59
2023/03/28 06:25:32;;;;;;;15.38;6.82;;;;;;;;;;6263522;28;20044;-61
2023/03/28 06:28:33;;;;;;;15.05;7.25;;;;;;;;;;6265707;28;20052;-61
2023/03/28 06:31:33;;;;;;;16.85;7.95;;;;;;;;;;6261915;28;20111;-61
2023/03/28 06:34:34;;;;;;;14.88;6.78;;;;;;;;;;6262271;28;20484;-61
2023/03/28 06:37:35;;;;;;;27.80;11.70;;;;;;;;;;6261175;28;20422;-61
2023/03/28 06:40:35;;;;;;;22.60;10.77;;;;;;;;;;6264140;28;20554;-61
2023/03/28 06:43:36;;;;;;;26.88;10.80;;;;;;;;;;6261752;28;20140;-60
2023/03/28 06:46:36;;;;;;;10.40;3.85;;;;;;;;;;6267003;28;20049;-61
2023/03/28 06:49:37;;;;;;;7.05;3.28;;;;;;;;;;6267744;28;20478;-60
2023/03/28 06:52:38;;;;;;;8.98;3.85;;;;;;;;;;6261228;28;20044;-61
2023/03/28 06:55:38;;;;;;;11.80;4.80;;;;;;;;;;6262029;28;20041;-60
2023/03/28 06:58:39;;;;;;;10.55;4.75;;;;;;;;;;6258710;28;20049;-60
2023/03/28 07:01:39;;;;;;;12.50;5.00;;;;;;;;;;6262949;28;20124;-60
2023/03/28 07:04:40;;;;;;;11.25;4.30;;;;;;;;;;6261911;28;20056;-60
2023/03/28 07:07:41;;;;;;;7.38;3.78;;;;;;;;;;6258335;28;20484;-61
2023/03/28 07:10:42;;;;;;;9.57;4.45;;;;;;;;;;6261404;28;20059;-60
2023/03/28 07:13:42;;;;;;;9.80;4.13;;;;;;;;;;6261032;28;20059;-60
2023/03/28 07:16:43;;;;;;;8.35;4.10;;;;;;;;;;6257277;28;20041;-59
2023/03/28 07:19:44;;;;;;;9.98;3.70;;;;;;;;;;6261624;28;20141;-60
2023/03/28 07:22:45;;;;;;;9.30;3.60;;;;;;;;;;6260128;28;20123;-61
2023/03/28 07:25:46;;;;;;;11.45;3.70;;;;;;;;;;6261348;28;20418;-60
2023/03/28 07:28:46;;;;;;;6.47;2.95;;;;;;;;;;6262954;28;20049;-61
2023/03/28 07:31:47;;;;;;;7.05;2.88;;;;;;;;;;6265428;28;20107;-61
2023/03/28 07:34:47;;;;;;;9.00;2.92;;;;;;;;;;6259876;28;20040;-59
2023/03/28 07:37:48;;;;;;;7.32;2.20;;;;;;;;;;6259462;28;20090;-61
2023/03/28 07:40:49;;;;;;;5.13;2.40;;;;;;;;;;6260843;28;20578;-59
2023/03/28 07:43:49;;;;;;;4.60;2.00;;;;;;;;;;6261072;28;20041;-60
2023/03/28 07:46:51;;;;;;;6.95;2.22;;;;;;;;;;6257848;28;20086;-56
2023/03/28 07:49:52;;;;;;;4.70;2.25;;;;;;;;;;6261008;28;20381;-61
2023/03/28 07:52:56;;;;;;;5.70;2.80;;;;;;;;;;6256933;28;20037;-60
2023/03/28 07:55:57;;;;;;;5.22;2.67;;;;;;;;;;6251474;28;20052;-60
2023/03/28 07:58:57;;;;;;;5.45;2.40;;;;;;;;;;6254807;28;20416;-61
2023/03/28 08:01:58;;;;;;;5.95;2.63;;;;;;;;;;6254953;28;20045;-60
2023/03/28 08:04:59;;;;;;;6.95;2.78;;;;;;;;;;6251812;28;20052;-60
2023/03/28 08:08:00;;;;;;;7.68;3.25;;;;;;;;;;6250513;28;20132;-60
2023/03/28 08:11:00;;;;;;;7.07;2.83;;;;;;;;;;6249910;28;20083;-60
2023/03/28 08:14:02;;;;;;;5.05;2.60;;;;;;;;;;6251983;28;20095;-61
2023/03/28 08:17:03;;;;;;;7.28;3.30;;;;;;;;;;6250152;28;20044;-59
2023/03/28 08:20:08;;;;;;;7.38;3.38;;;;;;;;;;6252049;28;20123;-61
2023/03/28 08:23:09;;;;;;;7.97;3.80;;;;;;;;;;6252239;28;20045;-56
2023/03/28 08:26:10;;;;;;;4.90;2.70;;;;;;;;;;6249253;28;20044;-61
2023/03/28 08:29:11;;;;;;;5.50;2.38;;;;;;;;;;6252166;28;20052;-59
2023/03/28 08:32:12;;;;;;;4.65;2.63;;;;;;;;;;6252282;28;20060;-61
2023/03/28 08:35:13;;;;;;;4.53;2.15;;;;;;;;;;6246798;28;20388;-61
2023/03/28 08:38:14;;;;;;;6.63;2.50;;;;;;;;;;6250172;28;20143;-61
2023/03/28 08:41:17;;;;;;;5.20;2.30;;;;;;;;;;6250046;28;20049;-61
2023/03/28 08:44:36;;;;;;;4.65;2.53;;;;;;;;;;6250678;28;22641;-61
2023/03/28 08:47:54;;;;;;;5.75;2.58;;;;;;;;;;6250425;28;20467;-60
2023/03/28 08:51:04;;;;;;;6.45;2.90;;;;;;;;;;6252241;28;20049;-61
2023/03/28 08:54:30;;;;;;;7.65;3.53;;;;;;;;;;6252191;28;20127;-60
2023/03/28 08:57:33;;;;;;;4.80;2.55;;;;;;;;;;6252917;28;20478;-60
2023/03/28 09:00:35;;;;;;;5.78;2.47;;;;;;;;;;6249668;28;20575;-61
2023/03/28 09:03:36;;;;;;;7.28;2.60;;;;;;;;;;6252669;28;20501;-61
2023/03/28 09:06:41;;;;;;;5.70;3.03;;;;;;;;;;6250336;28;20049;-60
2023/03/28 09:09:53;;;;;;;6.03;2.92;;;;;;;;;;6251106;28;20464;-60
2023/03/28 09:13:14;;;;;;;5.10;2.53;;;;;;;;;;6251979;28;20053;-61
2023/03/28 09:16:23;;;;;;;6.85;2.80;;;;;;;;;;6251719;28;20060;-61
2023/03/28 09:19:29;;;;;;;5.20;2.95;;;;;;;;;;6250002;28;20056;-60
2023/03/28 09:22:48;;;;;;;7.60;2.95;;;;;;;;;;6251307;28;20053;-60
2023/03/28 09:26:08;;;;;;;6.07;2.70;;;;;;;;;;6249519;28;20067;-60
2023/03/28 09:29:16;;;;;;;7.28;2.80;;;;;;;;;;6249777;28;21389;-61
2023/03/28 09:32:32;;;;;;;7.53;4.28;;;;;;;;;;6251083;28;20053;-61
2023/03/28 09:35:33;;;;;;;6.10;3.33;;;;;;;;;;6247222;28;20114;-61
2023/03/28 09:39:04;;;;;;;7.32;2.20;;;;;;;;;;6250689;28;20041;-60
2023/03/28 09:42:21;;;;;;;9.53;3.33;;;;;;;;;;6251274;28;20738;-59
2023/03/28 09:46:01;;;;;;;9.77;3.50;;;;;;;;;;6249661;28;20085;-58
2023/03/28 09:49:02;;;;;;;8.00;3.70;;;;;;;;;;6228254;28;20099;-60
2023/03/28 09:52:13;;;;;;;9.27;3.25;;;;;;;;;;6249590;28;20710;-60
2023/03/28 09:55:20;;;;;;;4.40;2.20;;;;;;;;;;6249194;28;20052;-60
2023/03/28 09:58:20;;;;;;;5.88;2.92;;;;;;;;;;6228065;28;20111;-60
2023/03/28 10:01:44;;;;;;;5.30;2.60;;;;;;;;;;6248653;28;20469;-61
2023/03/28 10:04:44;;;;;;;5.28;2.17;;;;;;;;;;6247452;28;20091;-61
2023/03/28 10:07:46;;;;;;;6.35;2.25;;;;;;;;;;6251583;28;21385;-58
2023/03/28 10:11:03;;;;;;;5.68;2.55;;;;;;;;;;6251377;28;20530;-60
2023/03/28 10:14:04;;;;;;;6.35;2.25;;;;;;;;;;6249718;28;20044;-60
2023/03/28 10:17:14;;;;;;;4.57;2.30;;;;;;;;;;6249062;28;20111;-62
2023/03/28 10:20:20;;;;;;;7.30;2.50;;;;;;;;;;6251840;28;20060;-61
2023/03/28 10:23:22;;;;;;;5.47;2.65;;;;;;;;;;6250563;28;20455;-61
2023/03/28 10:26:25;;;;;;;5.60;2.88;;;;;;;;;;6248519;28;20049;-61
2023/03/28 10:29:26;;;;;;;5.25;2.20;;;;;;;;;;6250474;28;20049;-61
2023/03/28 10:32:30;;;;;;;4.30;2.33;;;;;;;;;;6250484;28;20474;-58
2023/03/28 10:35:32;;;;;;;4.82;2.17;;;;;;;;;;6251872;28;20061;-60
2023/03/28 10:38:45;;;;;;;4.88;2.20;;;;;;;;;;6255379;28;20492;-60
2023/03/28 10:41:50;;;;;;;;;;;;;;;;;;6257127;28;20144;-62
2023/03/28 10:44:59;;;;;;;8.23;2.58;;;;;;;;;;6252062;28;19978;-61
2023/03/28 10:48:10;;;;;;;4.88;2.20;;;;;;;;;;6251520;28;20053;-60
2023/03/28 10:51:20;;;;;;;6.15;2.42;;;;;;;;;;6256567;28;20739;-60
2023/03/28 10:54:44;;;;;;;6.30;2.58;;;;;;;;;;6255446;28;20920;-60
2023/03/28 10:57:52;;;;;;;4.25;2.00;;;;;;;;;;6252660;28;20649;-60
2023/03/28 11:01:04;;;;;;;5.00;2.83;;;;;;;;;;6253502;28;20055;-61
2023/03/28 11:04:32;;;;;;;6.30;2.67;;;;;;;;;;6254700;28;21037;-61
2023/03/28 11:08:10;;;;;;;5.05;2.15;;;;;;;;;;6254821;28;20499;-61
2023/03/28 11:11:30;;;;;;;5.40;2.70;;;;;;;;;;6253526;28;20454;-59
2023/03/28 11:14:45;;;;;;;4.32;2.25;;;;;;;;;;6249275;28;20086;-61
2023/03/28 11:18:12;;;;;;;6.80;2.80;;;;;;;;;;6256156;28;20093;-57
2023/03/28 11:21:51;;;;;;;4.95;2.20;;;;;;;;;;6249881;28;21783;-61
2023/03/28 11:25:17;;;;;;;3.78;1.92;;;;;;;;;;6252761;28;20045;-61
2023/03/28 11:28:46;;;;;;;4.45;2.00;;;;;;;;;;6252396;28;20087;-60
2023/03/28 11:32:02;;;;;;;5.10;2.33;;;;;;;;;;6250318;28;20510;-59
2023/03/28 11:35:26;;;;;;;5.57;2.45;;;;;;;;;;6250380;28;20129;-60
2023/03/28 11:38:32;;;;;;;4.45;2.35;;;;;;;;;;6252480;28;20057;-60
2023/03/28 11:41:37;;;;;;;4.00;1.92;;;;;;;;;;6252382;28;20056;-60
2023/03/28 11:44:44;;;;;;;5.90;2.42;;;;;;;;;;6250545;28;20041;-60
2023/03/28 11:48:04;;;;;;;6.70;2.33;;;;;;;;;;6253883;28;20064;-60
2023/03/28 11:51:14;;;;;;;5.00;2.70;;;;;;;;;;6253003;28;20047;-59
2023/03/28 11:54:23;;;;;;;6.53;2.97;;;;;;;;;;6252004;28;20049;-60
2023/03/28 11:57:28;;;;;;;6.10;3.10;;;;;;;;;;6251502;28;20063;-61
2023/03/28 12:01:01;;;;;;;5.35;2.72;;;;;;;;;;6255039;28;20109;-61
2023/03/28 12:04:20;;;;;;;7.20;3.08;;;;;;;;;;6245374;28;20052;-61
2023/03/28 12:07:29;;;;;;;6.20;2.17;;;;;;;;;;6250652;28;20060;-60
2023/03/28 12:10:35;;;;;;;2.95;1.60;;;;;;;;;;6249491;28;20422;-60
2023/03/28 12:13:41;;;;;;;4.30;1.10;;;;;;;;;;6250319;28;20869;-60
2023/03/28 12:16:48;;;;;;;3.38;1.40;;;;;;;;;;6252520;28;21368;-59
2023/03/28 12:19:48;;;;;;;7.18;1.63;;;;;;;;;;6249359;28;20051;-60
2023/03/28 12:22:58;;;;;;;4.95;1.70;;;;;;;;;;6253352;28;20052;-60
2023/03/28 12:26:25;;;;;;;5.97;1.98;;;;;;;;;;6251212;28;20068;-59
2023/03/28 12:29:57;;;;;;;4.60;2.13;;;;;;;;;;6254069;28;20053;-61
2023/03/28 12:33:36;;;;;;;6.45;2.50;;;;;;;;;;6252124;28;20056;-58
2023/03/28 12:36:47;;;;;;;5.43;2.65;;;;;;;;;;6249774;28;20553;-61
2023/03/28 12:39:59;;;;;;;4.68;2.30;;;;;;;;;;6251921;28;20053;-61
2023/03/28 12:43:01;;;;;;;4.63;2.20;;;;;;;;;;6251853;28;20065;-59
2023/03/28 12:46:03;;;;;;;5.90;2.78;;;;;;;;;;6249942;28;20056;-60
2023/03/28 12:49:09;;;;;;;5.55;3.40;;;;;;;;;;6252534;28;20037;-59
2023/03/28 12:52:16;;;;;;;7.72;3.47;;;;;;;;;;6253209;28;20162;-62
2023/03/28 12:55:23;;;;;;;4.03;2.05;;;;;;;;;;6250397;28;20052;-59
2023/03/28 12:58:25;;;;;;;5.15;2.03;;;;;;;;;;6250273;28;20056;-61
2023/03/28 13:01:28;;;;;;;;;;;;;;;;;;6251752;28;20059;-61
2023/03/28 13:04:34;;;;;;;;;;;;;;;;;;6250509;28;20572;-61
2023/03/28 13:07:50;;;;;;;8.05;4.57;;;;;;;;;;6249594;28;20448;-61
2023/03/28 13:11:34;;;;;;;10.45;6.18;;;;;;;;;;6251649;28;20087;-59
2023/03/28 13:14:40;;;;;;;7.88;4.93;;;;;;;;;;6250152;28;20552;-59
2023/03/28 13:17:45;;;;;;;10.85;5.60;;;;;;;;;;6250281;28;20083;-61
2023/03/28 13:20:50;;;;;;;13.05;5.97;;;;;;;;;;6248447;28;20474;-61
2023/03/28 13:23:51;;;;;;;11.68;5.85;;;;;;;;;;6251476;28;20515;-60
2023/03/28 13:26:54;;;;;;;10.10;5.38;;;;;;;;;;6247767;28;20393;-59
2023/03/28 13:30:13;;;;;;;9.48;5.85;;;;;;;;;;6247069;28;20644;-59
2023/03/28 13:33:25;;;;;;;10.52;5.40;;;;;;;;;;6252588;28;20400;-61
2023/03/28 13:36:31;;;;;;;9.82;4.85;;;;;;;;;;6250898;28;20103;-57
2023/03/28 13:39:32;;;;;;;9.32;5.43;;;;;;;;;;6252148;28;20533;-60
2023/03/28 13:42:33;;;;;;;9.60;5.65;;;;;;;;;;6250311;28;20098;-61
2023/03/28 13:45:36;;;;;;;9.77;5.57;;;;;;;;;;6249106;28;20051;-60
2023/03/28 13:48:49;;;;;;;;;;;;;;;;;;6253212;28;20815;-61
2023/03/28 13:51:51;;;;;;;8.35;4.50;;;;;;;;;;6252699;28;19983;-61
2023/03/28 13:54:59;;;;;;;9.13;4.70;;;;;;;;;;6246339;28;20128;-60
2023/03/28 13:58:00;;;;;;;7.00;4.40;;;;;;;;;;6249302;28;20059;-61
2023/03/28 14:01:14;;;;;;;10.38;4.90;;;;;;;;;;6250893;28;20487;-60
2023/03/28 14:04:26;;;;;;;7.43;3.47;;;;;;;;;;6248464;28;20041;-60
2023/03/28 14:07:28;;;;;;;7.22;3.60;;;;;;;;;;6252064;28;20053;-61
2023/03/28 14:10:38;;;;;;;7.68;4.15;;;;;;;;;;6255740;28;20057;-61
2023/03/28 14:13:38;;;;;;;6.60;3.00;;;;;;;;;;6256509;28;20533;-61
2023/03/28 14:16:42;;;;;;;6.18;3.35;;;;;;;;;;6251847;28;20049;-60
2023/03/28 14:19:46;;;;;;;7.20;3.65;;;;;;;;;;6254877;28;20471;-61
2023/03/28 14:22:50;;;;;;;6.20;3.40;;;;;;;;;;6256129;28;20045;-61
2023/03/28 14:25:51;;;;;;;8.77;3.92;;;;;;;;;;6255016;28;20080;-60
2023/03/28 14:28:57;;;;;;;8.57;3.72;;;;;;;;;;6255530;28;20049;-61
2023/03/28 14:31:58;;;;;;;8.68;4.68;;;;;;;;;;6253591;28;20902;-61
2023/03/28 14:35:22;;;;;;;11.57;4.63;;;;;;;;;;6253313;28;20057;-58
2023/03/28 14:38:41;;;;;;;10.10;4.85;;;;;;;;;;6251938;28;20041;-59
2023/03/28 14:41:42;;;;;;;8.27;4.72;;;;;;;;;;6253842;28;20052;-59
2023/03/28 14:44:48;;;;;;;9.73;4.70;;;;;;;;;;6253216;28;20644;-59
2023/03/28 14:47:50;;;;;;;10.18;5.18;;;;;;;;;;6255830;28;20049;-61
2023/03/28 14:50:51;;;;;;;9.70;5.13;;;;;;;;;;6252593;28;20068;-60
2023/03/28 14:53:52;;;;;;;9.50;4.85;;;;;;;;;;6254168;28;20091;-60
2023/03/28 14:56:55;;;;;;;8.90;4.97;;;;;;;;;;6255367;28;20484;-59
2023/03/28 14:59:57;;;;;;;10.07;5.15;;;;;;;;;;6254554;28;20068;-59
2023/03/28 15:02:59;;;;;;;8.40;4.60;;;;;;;;;;6255384;28;20057;-59
2023/03/28 15:06:01;;;;;;;9.55;4.53;;;;;;;;;;6250314;28;20059;-61
2023/03/28 15:09:16;;;;;;;9.13;4.13;;;;;;;;;;6252452;28;20060;-59
2023/03/28 15:12:20;;;;;;;9.10;4.15;;;;;;;;;;6251473;28;20043;-59
2023/03/28 15:15:25;;;;;;;8.73;3.88;;;;;;;;;;6251139;28;20041;-62
2023/03/28 15:18:29;;;;;;;9.35;4.35;;;;;;;;;;6252777;28;20053;-61
2023/03/28 15:21:29;;;;;;;5.95;2.92;;;;;;;;;;6250472;28;20139;-60
2023/03/28 15:24:30;;;;;;;7.78;3.25;;;;;;;;;;6250095;28;20076;-60
2023/03/28 15:27:34;;;;;;;10.05;4.35;;;;;;;;;;6255021;28;20537;-59
2023/03/28 15:30:40;;;;;;;8.93;4.60;;;;;;;;;;6253025;28;20057;-61
2023/03/28 15:33:45;;;;;;;8.75;5.43;;;;;;;;;;6252028;28;20633;-59
2023/03/28 15:37:05;;;;;;;13.98;7.93;;;;;;;;;;6250524;28;20053;-58
2023/03/28 15:40:36;;;;;;;15.90;9.05;;;;;;;;;;6254130;28;20088;-60
2023/03/28 15:43:54;;;;;;;13.57;6.97;;;;;;;;;;6243063;28;20045;-59
2023/03/28 15:46:59;;;;;;;14.02;7.22;;;;;;;;;;6251144;28;20587;-60
2023/03/28 15:50:05;;;;;;;10.82;5.85;;;;;;;;;;6252508;28;20495;-58
2023/03/28 15:53:11;;;;;;;10.82;5.50;;;;;;;;;;6254258;28;20056;-61
2023/03/28 15:56:27;;;;;;;11.48;4.78;;;;;;;;;;6251060;28;20049;-61
2023/03/28 15:59:35;;;;;;;7.45;3.97;;;;;;;;;;6248573;28;20102;-59
2023/03/28 16:02:39;;;;;;;10.55;4.80;;;;;;;;;;6250726;28;20416;-61
2023/03/28 16:05:46;;;;;;;8.25;4.38;;;;;;;;;;6249176;28;20056;-60
2023/03/28 16:08:56;;;;;;;9.60;4.35;;;;;;;;;;6251265;28;20487;-59
2023/03/28 16:12:02;;;;;;;9.40;4.75;;;;;;;;;;6258659;28;20147;-52
2023/03/28 16:15:04;;;;;;;6.93;3.80;;;;;;;;;;6255712;28;20420;-61
2023/03/28 16:18:05;;;;;;;9.75;3.85;;;;;;;;;;6256233;28;20097;-59
2023/03/28 16:21:08;;;;;;;6.82;3.30;;;;;;;;;;6257425;28;20048;-60
2023/03/28 16:24:09;;;;;;;8.45;3.40;;;;;;;;;;6257559;28;20132;-59
2023/03/28 16:27:10;;;;;;;9.90;4.10;;;;;;;;;;6258298;28;20048;-60
2023/03/28 16:30:19;;;;;;;9.55;3.85;;;;;;;;;;6257221;28;20492;-55
2023/03/28 16:33:20;;;;;;;9.98;4.10;;;;;;;;;;6259043;28;20427;-56
2023/03/28 16:36:20;;;;;;;8.27;4.15;;;;;;;;;;6257704;28;20045;-57
2023/03/28 16:39:21;;;;;;;10.98;4.32;;;;;;;;;;6256186;28;20048;-55
2023/03/28 16:42:23;;;;;;;11.13;5.47;;;;;;;;;;6259167;28;20480;-58
2023/03/28 16:45:24;;;;;;;13.13;5.82;;;;;;;;;;6257341;28;20049;-59
2023/03/28 16:48:25;;;;;;;11.20;5.33;;;;;;;;;;6257240;28;20087;-60
2023/03/28 16:51:26;;;;;;;13.00;6.18;;;;;;;;;;6258425;28;20178;-62
2023/03/28 16:54:27;;;;;;;12.20;5.38;;;;;;;;;;6255886;28;20056;-53
2023/03/28 16:57:27;;;;;;;14.00;6.00;;;;;;;;;;6255567;28;20052;-58
2023/03/28 17:00:28;;;;;;;13.85;6.05;;;;;;;;;;6254238;28;20071;-61
2023/03/28 17:03:29;;;;;;;11.93;6.53;;;;;;;;;;6256851;28;20614;-60
2023/03/28 17:06:30;;;;;;;14.30;8.68;;;;;;;;;;6256194;28;20053;-57
2023/03/28 17:09:32;;;;;;;14.30;7.88;;;;;;;;;;6255285;28;20152;-61
2023/03/28 17:12:33;;;;;;;13.37;7.80;;;;;;;;;;6257956;28;20134;-60
2023/03/28 17:15:34;;;;;;;15.43;7.57;;;;;;;;;;6254178;28;20492;-61
2023/03/28 17:18:35;;;;;;;17.10;7.88;;;;;;;;;;6255616;28;20053;-60
2023/03/28 17:21:36;;;;;;;14.10;7.90;;;;;;;;;;6257191;28;20085;-61
2023/03/28 17:24:37;;;;;;;17.25;8.85;;;;;;;;;;6253929;28;20044;-60
2023/03/28 17:27:38;;;;;;;18.60;8.50;;;;;;;;;;6256763;28;20099;-59
2023/03/28 17:30:39;;;;;;;14.13;7.40;;;;;;;;;;6255813;28;20060;-57
2023/03/28 17:33:40;;;;;;;10.27;5.22;;;;;;;;;;6256556;28;20118;-59
2023/03/28 17:36:40;;;;;;;12.95;5.85;;;;;;;;;;6253982;28;20045;-56
2023/03/28 17:39:41;;;;;;;12.45;5.75;;;;;;;;;;6256436;28;20053;-53
2023/03/28 17:42:42;;;;;;;9.88;5.25;;;;;;;;;;6263444;28;20419;-55
2023/03/28 17:45:43;;;;;;;12.45;5.35;;;;;;;;;;6257382;28;20079;-60
2023/03/28 17:48:43;;;;;;;9.63;4.78;;;;;;;;;;6260480;28;20052;-59
2023/03/28 17:51:44;;;;;;;12.13;4.85;;;;;;;;;;6262358;28;20124;-54
2023/03/28 17:54:45;;;;;;;12.93;5.47;;;;;;;;;;6259164;28;20087;-59
2023/03/28 17:57:46;;;;;;;10.63;5.05;;;;;;;;;;6257982;28;20504;-61
2023/03/28 18:00:46;;;;;;;10.55;5.47;;;;;;;;;;6260602;28;20059;-59
2023/03/28 18:03:47;;;;;;;10.55;5.10;;;;;;;;;;6262411;28;20064;-55
2023/03/28 18:06:48;;;;;;;13.57;5.90;;;;;;;;;;6258471;28;20056;-56
2023/03/28 18:09:49;;;;;;;10.60;4.70;;;;;;;;;;6260484;28;20476;-60
2023/03/28 18:12:50;;;;;;;10.23;5.07;;;;;;;;;;6263484;28;20076;-59
2023/03/28 18:15:51;;;;;;;11.15;4.90;;;;;;;;;;6259535;28;20187;-56
2023/03/28 18:18:53;;;;;;;9.13;4.82;;;;;;;;;;6260568;28;20057;-60
2023/03/28 18:21:54;;;;;;;15.30;5.90;;;;;;;;;;6261353;28;20202;-58
2023/03/28 18:24:55;;;;;;;13.85;5.97;;;;;;;;;;6257420;28;20135;-58
2023/03/28 18:27:56;;;;;;;14.52;6.47;;;;;;;;;;6261330;28;20060;-60